Weather at Tindouf East Airport

Public forecast

Using degrees Celsius for public forecast. Weather courtesy of forecast.io.

Closest aviation weather report (METAR) to Tindouf East Airport

Closest report is Tindouf Airport, 36.1 nm (66.9 km) W. Retrieved 2021/01/28 04:00 UTC (2 minutes ago):

DAOF 280400Z 04004KT CAVOK 13/M01 Q1023

Closest aviation forecast (TAF) to Tindouf East Airport

Forecast is more than 12 hours old.

Closest forecast is Tindouf Airport, 36.1 nm (66.9 km) W. Retrieved 2017/11/09 18:03 UTC (3 years ago):

TAF DAOF 091700Z 0918/1009 32010KT 9999 SCT040 BKN100 PROB30 TEMPO 0918/0921 FEW033CB